createdAt,value
2024-01-06T00:01:49.112Z,72.99
2024-01-06T00:04:16.041Z,72.98
2024-01-06T00:06:42.954Z,74.04
2024-01-06T00:09:09.776Z,73.79
2024-01-06T00:11:39.602Z,73.94
2024-01-06T00:14:06.425Z,72.90
2024-01-06T00:16:33.185Z,73.01
2024-01-06T00:19:00.093Z,73.14
2024-01-06T00:21:26.966Z,72.85
2024-01-06T00:23:53.746Z,72.71
2024-01-06T00:26:20.506Z,73.86
2024-01-06T00:28:50.399Z,73.91
2024-01-06T00:31:17.292Z,74.28
2024-01-06T00:33:47.201Z,72.78
2024-01-06T00:36:14.005Z,72.87
2024-01-06T00:38:40.802Z,73.83
2024-01-06T00:41:07.570Z,73.54
2024-01-06T00:43:34.446Z,74.08
2024-01-06T00:46:01.207Z,73.44
2024-01-06T00:48:28.105Z,73.19
2024-01-06T00:50:54.989Z,72.83
2024-01-06T00:53:24.833Z,72.84
2024-01-06T00:55:51.594Z,72.81
2024-01-06T00:58:18.379Z,73.24
2024-01-06T01:00:48.321Z,74.51
2024-01-06T01:03:17.255Z,74.96
2024-01-06T01:05:47.213Z,74.67
2024-01-06T01:08:14.085Z,73.01
2024-01-06T01:10:40.873Z,73.55
2024-01-06T01:13:07.711Z,72.86
2024-01-06T01:15:34.553Z,72.95
2024-01-06T01:18:01.555Z,72.21
2024-01-06T01:20:28.517Z,72.97
2024-01-06T01:22:55.286Z,72.62
2024-01-06T01:25:22.061Z,72.21
2024-01-06T01:27:48.902Z,73.23
2024-01-06T01:30:15.954Z,73.42
2024-01-06T01:32:46.062Z,73.87
2024-01-06T01:35:16.000Z,72.89
2024-01-06T01:37:45.815Z,73.39
2024-01-06T01:40:12.735Z,73.30
2024-01-06T01:42:39.527Z,72.87
2024-01-06T01:45:06.481Z,73.22
2024-01-06T01:47:33.362Z,73.38
2024-01-06T01:50:00.356Z,73.59
2024-01-06T01:52:27.259Z,74.30
2024-01-06T01:54:54.133Z,74.81
2024-01-06T01:57:21.003Z,75.54
2024-01-06T01:59:47.849Z,75.32
2024-01-06T02:02:17.718Z,74.32
2024-01-06T02:04:47.607Z,74.24
2024-01-06T02:07:14.407Z,73.60
2024-01-06T02:09:41.306Z,74.21
2024-01-06T02:12:11.191Z,74.57
2024-01-06T02:14:38.027Z,73.45
2024-01-06T02:17:07.816Z,74.20
2024-01-06T02:19:34.704Z,74.65
2024-01-06T02:22:01.689Z,74.54
2024-01-06T02:24:28.352Z,73.74
2024-01-06T02:26:54.962Z,74.41
2024-01-06T02:29:21.557Z,73.76
2024-01-06T02:31:48.225Z,74.28
2024-01-06T02:34:15.002Z,74.89
2024-01-06T02:36:41.720Z,75.57
2024-01-06T02:39:08.416Z,75.55
2024-01-06T02:41:35.098Z,75.93
2024-01-06T02:44:01.692Z,75.46
2024-01-06T02:46:28.299Z,75.04
2024-01-06T02:48:55.005Z,75.96
2024-01-06T02:51:21.812Z,75.26
2024-01-06T02:53:48.431Z,73.66
2024-01-06T02:56:15.078Z,73.68
2024-01-06T02:58:41.678Z,74.04
2024-01-06T03:01:08.525Z,74.30
2024-01-06T03:03:35.314Z,73.70
2024-01-06T03:06:02.016Z,74.17
2024-01-06T03:08:28.664Z,74.96
2024-01-06T03:10:55.310Z,73.88
2024-01-06T03:13:21.951Z,73.76
2024-01-06T03:15:48.642Z,74.53
2024-01-06T03:18:15.583Z,74.87
2024-01-06T03:20:42.337Z,74.87
2024-01-06T03:23:09.138Z,74.44
2024-01-06T03:25:35.930Z,73.85
2024-01-06T03:28:02.675Z,74.33
2024-01-06T03:30:29.525Z,75.15
2024-01-06T03:32:56.494Z,74.10
2024-01-06T03:35:23.350Z,73.47
2024-01-06T03:37:50.220Z,73.73
2024-01-06T03:40:16.874Z,73.55
2024-01-06T03:42:43.545Z,72.66
2024-01-06T03:45:10.187Z,74.07
2024-01-06T03:47:36.943Z,72.94
2024-01-06T03:50:03.610Z,72.54
2024-01-06T03:52:30.250Z,71.61
2024-01-06T03:54:56.941Z,71.63
2024-01-06T03:57:23.755Z,71.68
2024-01-06T03:59:53.118Z,72.13
2024-01-06T04:02:19.743Z,69.93
2024-01-06T04:04:46.444Z,69.75
2024-01-06T04:07:13.101Z,70.51
2024-01-06T04:09:39.745Z,71.24
2024-01-06T04:12:06.352Z,70.71
2024-01-06T04:14:32.946Z,70.51
2024-01-06T04:16:59.574Z,70.19
2024-01-06T04:19:26.253Z,70.84
2024-01-06T04:21:52.989Z,70.86
2024-01-06T04:24:19.699Z,70.68
2024-01-06T04:26:46.467Z,71.82
2024-01-06T04:29:13.160Z,71.19
2024-01-06T04:31:39.873Z,70.83
2024-01-06T04:34:06.763Z,71.71
2024-01-06T04:36:33.533Z,71.29
2024-01-06T04:39:00.365Z,70.51
2024-01-06T04:41:27.155Z,70.29
2024-01-06T04:43:53.966Z,69.77
2024-01-06T04:46:20.762Z,69.97
2024-01-06T04:48:47.606Z,69.69
2024-01-06T04:51:17.500Z,70.97
2024-01-06T04:53:44.300Z,70.23
2024-01-06T04:56:11.065Z,70.39
2024-01-06T04:58:40.904Z,69.43
2024-01-06T05:01:07.797Z,69.80
2024-01-06T05:03:34.746Z,70.37
2024-01-06T05:06:04.651Z,70.13
2024-01-06T05:08:31.412Z,70.45
2024-01-06T05:10:58.252Z,70.07
2024-01-06T05:13:25.043Z,70.66
2024-01-06T05:15:55.097Z,71.25
2024-01-06T05:18:25.176Z,70.76
2024-01-06T05:20:52.008Z,70.57
2024-01-06T05:23:18.763Z,70.68
2024-01-06T05:25:45.549Z,70.22
2024-01-06T05:28:12.325Z,70.46
2024-01-06T05:30:39.269Z,70.14
2024-01-06T05:33:06.271Z,69.68
2024-01-06T05:35:34.453Z,69.76
2024-01-06T05:38:01.925Z,70.24
2024-01-06T05:40:31.717Z,69.38
2024-01-06T05:42:58.592Z,69.75
2024-01-06T05:45:27.518Z,68.29
2024-01-06T05:47:55.932Z,68.06
2024-01-06T05:50:22.702Z,68.12
2024-01-06T05:52:49.533Z,67.98
2024-01-06T05:55:16.319Z,67.16
2024-01-06T05:57:46.113Z,67.25
2024-01-06T06:00:15.891Z,68.85
2024-01-06T06:02:42.703Z,68.34
2024-01-06T06:05:12.514Z,68.49
2024-01-06T06:07:42.364Z,68.74
2024-01-06T06:10:12.276Z,69.03
2024-01-06T06:12:39.159Z,68.72
2024-01-06T06:15:05.971Z,68.23
2024-01-06T06:17:32.869Z,68.37
2024-01-06T06:20:02.695Z,69.37
2024-01-06T06:22:32.554Z,69.82
2024-01-06T06:24:59.326Z,69.97
2024-01-06T06:27:29.115Z,71.11
2024-01-06T06:29:55.938Z,71.63
2024-01-06T06:32:22.782Z,72.86
2024-01-06T06:34:49.709Z,72.67
2024-01-06T06:37:16.527Z,72.45
2024-01-06T06:39:43.374Z,72.29
2024-01-06T06:42:13.345Z,72.65
2024-01-06T06:44:40.174Z,73.70
2024-01-06T06:47:06.947Z,74.09
2024-01-06T06:49:33.806Z,75.03
2024-01-06T06:52:00.720Z,74.84
2024-01-06T06:54:27.530Z,74.49
2024-01-06T06:56:54.333Z,75.67
2024-01-06T06:59:21.210Z,74.98
2024-01-06T07:01:48.012Z,74.34
2024-01-06T07:04:17.954Z,73.17
2024-01-06T07:06:47.768Z,73.15
2024-01-06T07:09:19.144Z,73.65
2024-01-06T07:11:47.016Z,73.21
2024-01-06T07:14:13.779Z,73.52
2024-01-06T07:16:40.554Z,74.14
2024-01-06T07:19:07.507Z,74.16
2024-01-06T07:21:34.353Z,74.32
2024-01-06T07:24:04.176Z,73.43
2024-01-06T07:26:33.972Z,72.64
2024-01-06T07:29:03.807Z,72.95
2024-01-06T07:31:30.660Z,72.99
2024-01-06T07:33:57.564Z,72.62
2024-01-06T07:36:27.467Z,72.91
2024-01-06T07:38:54.321Z,72.23
2024-01-06T07:41:21.074Z,73.76
2024-01-06T07:43:47.881Z,74.57
2024-01-06T07:46:15.668Z,74.76
2024-01-06T07:48:46.570Z,74.15
2024-01-06T07:51:16.576Z,75.32
2024-01-06T07:53:43.345Z,73.86
2024-01-06T07:56:11.328Z,73.91
2024-01-06T07:58:38.092Z,73.90
2024-01-06T08:01:07.962Z,74.07
2024-01-06T08:03:37.826Z,73.60
2024-01-06T08:06:07.824Z,73.32
2024-01-06T08:08:37.668Z,73.35
2024-01-06T08:11:04.500Z,73.88
2024-01-06T08:13:34.264Z,72.82
2024-01-06T08:16:01.068Z,73.15
2024-01-06T08:18:28.035Z,72.90
2024-01-06T08:20:57.938Z,71.96
2024-01-06T08:23:24.805Z,71.52
2024-01-06T08:25:51.638Z,71.34
2024-01-06T08:28:18.399Z,71.01
2024-01-06T08:30:48.361Z,70.36
2024-01-06T08:33:15.433Z,69.93
2024-01-06T08:35:45.341Z,69.19
2024-01-06T08:38:12.174Z,68.99
2024-01-06T08:40:42.018Z,68.68
2024-01-06T08:43:08.879Z,69.18
2024-01-06T08:45:35.885Z,70.89
2024-01-06T08:48:02.857Z,70.33
2024-01-06T08:50:29.670Z,68.90
2024-01-06T08:52:56.510Z,71.04
2024-01-06T08:55:23.291Z,70.38
2024-01-06T08:57:50.103Z,69.55
2024-01-06T09:00:16.961Z,68.56
2024-01-06T09:02:46.954Z,68.12
2024-01-06T09:05:32.168Z,69.41
2024-01-06T09:07:58.928Z,66.46
2024-01-06T09:10:25.682Z,65.90
2024-01-06T09:12:52.525Z,65.38
2024-01-06T09:15:19.391Z,66.13
2024-01-06T09:17:46.279Z,65.27
2024-01-06T09:20:13.074Z,65.08
2024-01-06T09:22:39.866Z,65.02
2024-01-06T09:25:06.617Z,64.67
2024-01-06T09:27:33.470Z,65.35
2024-01-06T09:30:00.332Z,66.08
2024-01-06T09:32:27.168Z,64.07
2024-01-06T09:34:54.221Z,64.35
2024-01-06T09:37:21.076Z,63.36
2024-01-06T09:39:47.935Z,62.64
2024-01-06T09:42:14.848Z,61.75
2024-01-06T09:44:41.734Z,61.91
2024-01-06T09:47:08.581Z,61.96
2024-01-06T09:49:35.362Z,62.73
2024-01-06T09:52:02.887Z,62.75
2024-01-06T09:54:29.799Z,62.79
2024-01-06T09:56:56.558Z,62.97
2024-01-06T09:59:23.336Z,59.00
2024-01-06T10:01:50.111Z,60.22
2024-01-06T10:04:20.512Z,59.44
2024-01-06T10:06:49.363Z,58.87
2024-01-06T10:09:16.203Z,57.92
2024-01-06T10:11:42.996Z,54.60
2024-01-06T10:14:09.802Z,56.02
2024-01-06T10:16:36.612Z,55.15
2024-01-06T10:19:03.473Z,54.47
2024-01-06T10:21:30.276Z,54.05
2024-01-06T10:23:57.028Z,52.99
2024-01-06T10:26:23.840Z,52.08
2024-01-06T10:28:50.671Z,53.08
2024-01-06T10:31:17.526Z,53.45
2024-01-06T10:33:44.548Z,57.47
2024-01-06T10:36:11.493Z,53.98
2024-01-06T10:38:38.280Z,54.55
2024-01-06T10:41:05.064Z,55.54
2024-01-06T10:43:31.865Z,56.61
2024-01-06T10:45:58.839Z,55.76
2024-01-06T10:48:25.825Z,54.76
2024-01-06T10:50:52.725Z,55.24
2024-01-06T10:53:19.574Z,55.17
2024-01-06T10:55:46.390Z,53.74
2024-01-06T10:58:13.260Z,56.73
2024-01-06T11:00:40.293Z,53.54
2024-01-06T11:03:07.508Z,54.01
2024-01-06T11:05:34.513Z,52.97
2024-01-06T11:08:01.412Z,52.41
2024-01-06T11:10:28.022Z,51.34
2024-01-06T11:12:54.772Z,49.54
2024-01-06T11:15:21.418Z,52.76
2024-01-06T11:17:48.275Z,51.31
2024-01-06T11:20:15.084Z,52.23
2024-01-06T11:22:41.768Z,51.19
2024-01-06T11:25:10.853Z,51.94
2024-01-06T11:30:28.309Z,51.14
2024-01-06T11:32:55.215Z,55.35
2024-01-06T11:35:21.976Z,58.67
2024-01-06T11:37:49.069Z,53.65
2024-01-06T11:40:15.679Z,54.59
2024-01-06T11:42:43.563Z,57.28
2024-01-06T11:45:10.288Z,57.11
2024-01-06T11:47:37.123Z,56.98
2024-01-06T11:50:03.785Z,56.05
2024-01-06T11:52:30.470Z,52.79
2024-01-06T11:54:57.273Z,54.58
2024-01-06T11:57:23.945Z,56.19
2024-01-06T11:59:50.706Z,52.20
2024-01-06T12:02:17.388Z,49.92
2024-01-06T12:04:44.043Z,51.27
2024-01-06T12:07:10.684Z,51.97
2024-01-06T12:09:37.613Z,51.77
2024-01-06T12:12:07.514Z,49.61
2024-01-06T12:14:34.382Z,49.91
2024-01-06T12:17:01.000Z,51.64
2024-01-06T12:19:27.726Z,48.13
2024-01-06T12:21:54.471Z,48.39
2024-01-06T12:24:21.108Z,47.82
2024-01-06T12:26:47.773Z,46.33
2024-01-06T12:29:15.222Z,47.90
2024-01-06T12:31:42.058Z,46.95
2024-01-06T12:34:08.906Z,45.41
2024-01-06T12:36:35.638Z,45.59
2024-01-06T12:39:02.310Z,44.23
2024-01-06T12:41:28.947Z,44.95
2024-01-06T12:43:55.588Z,45.28
2024-01-06T12:46:22.176Z,45.94
2024-01-06T12:48:48.927Z,47.75
2024-01-06T12:51:15.784Z,47.93
2024-01-06T12:53:42.426Z,48.05
2024-01-06T12:56:09.014Z,48.01
2024-01-06T12:58:35.653Z,47.65
2024-01-06T13:01:02.485Z,48.17
2024-01-06T13:03:29.290Z,49.26
2024-01-06T13:05:56.039Z,50.58
2024-01-06T13:08:22.655Z,50.30
2024-01-06T13:10:49.273Z,50.08
2024-01-06T13:13:15.942Z,51.14
2024-01-06T13:15:42.885Z,50.04
2024-01-06T13:18:09.825Z,50.47
2024-01-06T13:20:36.700Z,50.53
2024-01-06T13:23:03.445Z,50.22
2024-01-06T13:25:30.267Z,48.81
2024-01-06T13:27:57.138Z,48.54
2024-01-06T13:30:24.031Z,49.55
2024-01-06T13:32:50.915Z,50.23
2024-01-06T13:35:17.833Z,48.73
2024-01-06T13:37:44.672Z,48.81
2024-01-06T13:40:11.504Z,48.35
2024-01-06T13:42:38.331Z,50.11
2024-01-06T13:45:05.181Z,50.18
2024-01-06T13:47:31.956Z,50.11
2024-01-06T13:49:59.056Z,50.81
2024-01-06T13:52:25.981Z,51.89
2024-01-06T13:54:52.859Z,52.40
2024-01-06T13:57:19.695Z,51.18
2024-01-06T13:59:46.520Z,51.08
2024-01-06T14:02:13.305Z,51.57
2024-01-06T14:04:40.219Z,50.58
2024-01-06T14:07:07.064Z,50.25
2024-01-06T14:09:33.949Z,49.67
2024-01-06T14:12:00.797Z,49.50
2024-01-06T14:14:27.584Z,51.57
2024-01-06T14:16:54.377Z,52.34
2024-01-06T14:19:21.185Z,57.65
2024-01-06T14:21:48.037Z,58.48
2024-01-06T14:24:14.842Z,58.24
2024-01-06T14:26:41.729Z,58.69
2024-01-06T14:29:08.551Z,58.38
2024-01-06T14:31:35.498Z,57.38
2024-01-06T14:34:02.464Z,60.53
2024-01-06T14:36:29.461Z,55.31
2024-01-06T14:38:56.249Z,56.62
2024-01-06T14:41:23.102Z,57.33
2024-01-06T14:43:49.882Z,56.55
2024-01-06T14:46:16.703Z,55.72
2024-01-06T14:48:43.586Z,57.43
2024-01-06T14:51:13.499Z,57.16
2024-01-06T14:53:40.281Z,58.41
2024-01-06T14:56:07.109Z,57.22
2024-01-06T14:58:33.930Z,57.17
2024-01-06T15:01:00.891Z,54.30
2024-01-06T15:03:27.846Z,55.44
2024-01-06T15:05:54.717Z,55.20
2024-01-06T15:08:21.539Z,54.83
2024-01-06T15:10:48.385Z,53.52
2024-01-06T15:13:15.150Z,53.40
2024-01-06T15:15:41.979Z,54.22
2024-01-06T15:18:08.899Z,53.25
2024-01-06T15:20:35.748Z,52.82
2024-01-06T15:23:02.356Z,52.91
2024-01-06T15:25:28.975Z,53.85
2024-01-06T15:27:55.626Z,52.49
2024-01-06T15:30:22.329Z,53.02
2024-01-06T15:32:49.081Z,52.32
2024-01-06T15:35:15.733Z,52.01
2024-01-06T15:37:42.416Z,52.49
2024-01-06T15:40:09.174Z,54.09
2024-01-06T15:42:35.893Z,52.13
2024-01-06T15:45:02.641Z,52.02
2024-01-06T15:47:29.288Z,51.56
2024-01-06T15:49:56.057Z,51.56
2024-01-06T15:52:23.092Z,52.50
2024-01-06T15:54:49.860Z,52.64
2024-01-06T15:57:16.563Z,52.58
2024-01-06T15:59:43.269Z,53.44
2024-01-06T16:02:09.917Z,53.01
2024-01-06T16:04:36.627Z,54.67
2024-01-06T16:07:03.304Z,53.68
2024-01-06T16:09:30.054Z,55.67
2024-01-06T16:11:56.706Z,54.81
2024-01-06T16:14:23.277Z,54.80
2024-01-06T16:16:49.878Z,55.91
2024-01-06T16:19:16.663Z,55.63
2024-01-06T16:21:43.617Z,55.33
2024-01-06T16:24:10.443Z,54.79
2024-01-06T16:26:37.235Z,54.90
2024-01-06T16:29:04.061Z,54.00
2024-01-06T16:31:31.059Z,54.85
2024-01-06T16:33:57.935Z,54.54
2024-01-06T16:36:24.861Z,55.05
2024-01-06T16:38:51.743Z,54.73
2024-01-06T16:41:20.625Z,54.29
2024-01-06T16:43:47.597Z,55.44
2024-01-06T16:46:45.144Z,54.53
2024-01-06T16:49:14.788Z,53.96
2024-01-06T16:51:41.751Z,54.03
2024-01-06T16:54:08.473Z,54.78
2024-01-06T16:56:35.200Z,54.77
2024-01-06T16:59:01.886Z,55.61
2024-01-06T17:01:28.758Z,54.43
2024-01-06T17:03:55.917Z,54.16
2024-01-06T17:06:22.564Z,55.74
2024-01-06T17:08:49.255Z,55.67
2024-01-06T17:11:15.939Z,54.38
2024-01-06T17:13:42.579Z,54.38
2024-01-06T17:16:09.255Z,54.41
2024-01-06T17:18:36.087Z,54.60
2024-01-06T17:21:02.807Z,55.49
2024-01-06T17:23:29.443Z,54.91
2024-01-06T17:25:56.076Z,55.12
2024-01-06T17:28:22.845Z,57.12
2024-01-06T17:30:49.536Z,57.05
2024-01-06T17:33:16.336Z,57.09
2024-01-06T17:35:42.959Z,57.02
2024-01-06T17:38:09.723Z,56.70
2024-01-06T17:40:36.296Z,55.76
2024-01-06T17:43:03.061Z,56.01
2024-01-06T17:45:29.968Z,55.82
2024-01-06T17:47:56.844Z,56.09
2024-01-06T17:50:23.672Z,54.72
2024-01-06T17:52:53.482Z,54.28
2024-01-06T17:55:20.225Z,53.03
2024-01-06T17:57:47.040Z,53.14
2024-01-06T18:00:13.883Z,53.81
2024-01-06T18:02:40.642Z,54.36
2024-01-06T18:05:07.918Z,53.99
2024-01-06T18:07:34.855Z,54.89
2024-01-06T18:10:01.874Z,54.86
2024-01-06T18:12:28.719Z,55.79
2024-01-06T18:14:55.366Z,54.45
2024-01-06T18:17:21.916Z,54.95
2024-01-06T18:19:50.586Z,54.65
2024-01-06T18:22:17.225Z,54.40
2024-01-06T18:24:43.930Z,55.05
2024-01-06T18:27:10.589Z,55.46
2024-01-06T18:29:38.816Z,55.67
2024-01-06T18:32:05.525Z,56.59
2024-01-06T18:34:32.577Z,54.90
2024-01-06T18:36:59.558Z,54.96
2024-01-06T18:39:26.330Z,55.69
2024-01-06T18:41:53.028Z,57.26
2024-01-06T18:44:19.709Z,56.75
2024-01-06T18:46:47.887Z,56.58
2024-01-06T18:49:14.579Z,55.57
2024-01-06T18:51:41.220Z,55.04
2024-01-06T18:54:07.905Z,55.16
2024-01-06T18:56:34.492Z,55.01
2024-01-06T18:59:01.258Z,55.59
2024-01-06T19:01:30.393Z,55.86
2024-01-06T19:03:57.136Z,55.65
2024-01-06T19:06:23.860Z,55.91
2024-01-06T19:08:50.527Z,55.93
2024-01-06T19:11:17.305Z,57.12
2024-01-06T19:13:44.105Z,56.27
2024-01-06T19:16:10.919Z,56.46
2024-01-06T19:18:37.785Z,56.21
2024-01-06T19:21:04.707Z,58.76
2024-01-06T19:23:31.498Z,59.02
2024-01-06T19:25:58.277Z,62.72
2024-01-06T19:28:25.020Z,61.80
2024-01-06T19:30:51.934Z,60.51
2024-01-06T19:33:18.899Z,61.52
2024-01-06T19:35:45.740Z,62.94
2024-01-06T19:38:12.513Z,62.63
2024-01-06T19:40:39.308Z,64.01
2024-01-06T19:43:06.147Z,65.94
2024-01-06T19:45:33.015Z,66.27
2024-01-06T19:47:59.893Z,66.36
2024-01-06T19:50:29.767Z,67.00
2024-01-06T19:52:56.544Z,67.35
2024-01-06T19:55:23.336Z,66.65
2024-01-06T19:57:50.123Z,65.68
2024-01-06T20:00:16.974Z,62.57
2024-01-06T20:02:43.725Z,65.13
2024-01-06T20:05:10.474Z,66.38
2024-01-06T20:07:37.304Z,63.83
2024-01-06T20:10:04.263Z,63.82
2024-01-06T20:12:31.089Z,63.16
2024-01-06T20:14:57.939Z,63.21
2024-01-06T20:17:24.734Z,63.57
2024-01-06T20:19:51.572Z,63.77
2024-01-06T20:22:18.397Z,63.70
2024-01-06T20:24:45.284Z,64.32
2024-01-06T20:27:12.134Z,62.14
2024-01-06T20:29:41.904Z,60.56
2024-01-06T20:32:08.889Z,62.95
2024-01-06T20:34:36.075Z,63.36
2024-01-06T20:37:02.959Z,63.66
2024-01-06T20:39:29.833Z,65.86
2024-01-06T20:41:56.694Z,65.90
2024-01-06T20:44:23.591Z,66.04
2024-01-06T20:46:50.482Z,66.07
2024-01-06T20:49:17.300Z,65.26
2024-01-06T20:51:44.266Z,65.83
2024-01-06T20:54:11.074Z,65.80
2024-01-06T20:56:37.982Z,65.12
2024-01-06T20:59:04.790Z,65.35
2024-01-06T21:01:31.729Z,64.14
2024-01-06T21:03:58.751Z,63.82
2024-01-06T21:06:27.297Z,62.48
2024-01-06T21:08:54.171Z,62.54
2024-01-06T21:11:21.051Z,61.77
2024-01-06T21:13:49.998Z,63.10
2024-01-06T21:16:16.831Z,61.84
2024-01-06T21:18:43.593Z,64.54
2024-01-06T21:21:10.420Z,63.61
2024-01-06T21:23:44.909Z,61.88
2024-01-06T21:26:27.403Z,61.56
2024-01-06T21:28:54.272Z,63.73
2024-01-06T21:31:21.148Z,60.68
2024-01-06T21:33:48.038Z,60.06
2024-01-06T21:36:15.010Z,58.65
2024-01-06T21:38:41.729Z,59.13
2024-01-06T21:41:08.388Z,58.88
2024-01-06T21:43:35.021Z,59.40
2024-01-06T21:46:02.110Z,58.62
2024-01-06T21:48:28.910Z,59.17
2024-01-06T21:50:56.001Z,59.12
2024-01-06T21:53:23.088Z,59.80
2024-01-06T21:55:49.804Z,62.95
2024-01-06T21:58:16.449Z,63.43
2024-01-06T22:00:47.422Z,65.13
2024-01-06T22:03:17.356Z,62.16
2024-01-06T22:08:34.918Z,63.86
2024-01-06T22:11:05.044Z,63.79
2024-01-06T22:13:34.417Z,65.33
2024-01-06T22:16:04.549Z,64.75
2024-01-06T22:18:31.650Z,64.41
2024-01-06T22:20:58.466Z,64.03
2024-01-06T22:23:28.382Z,65.04
2024-01-06T22:25:55.009Z,65.33
2024-01-06T22:28:21.955Z,65.50
2024-01-06T22:30:48.855Z,64.96
2024-01-06T22:33:18.353Z,65.96
2024-01-06T22:35:45.252Z,64.85
2024-01-06T22:38:11.924Z,64.49
2024-01-06T22:40:39.061Z,63.84
2024-01-06T22:43:05.806Z,63.94
2024-01-06T22:45:32.713Z,62.14
2024-01-06T22:47:59.532Z,62.35
2024-01-06T22:50:26.183Z,62.28
2024-01-06T22:52:52.788Z,62.81
2024-01-06T22:55:19.365Z,62.79
2024-01-06T22:57:46.095Z,63.29
2024-01-06T23:00:12.900Z,65.03
2024-01-06T23:02:39.516Z,67.17
2024-01-06T23:05:06.109Z,65.70
2024-01-06T23:07:32.821Z,63.83
2024-01-06T23:09:59.483Z,62.64
2024-01-06T23:12:26.123Z,65.96
2024-01-06T23:14:52.770Z,65.04
2024-01-06T23:17:19.402Z,63.85
2024-01-06T23:19:46.642Z,63.59
2024-01-06T23:22:13.626Z,63.96
2024-01-06T23:24:40.558Z,64.11
2024-01-06T23:27:07.355Z,63.98
2024-01-06T23:29:37.526Z,66.28
2024-01-06T23:32:05.222Z,65.96
2024-01-06T23:34:38.153Z,67.02
2024-01-06T23:37:09.068Z,65.31
2024-01-06T23:39:35.725Z,66.09
2024-01-06T23:42:02.360Z,66.25
2024-01-06T23:44:29.063Z,66.36
2024-01-06T23:46:55.660Z,67.02
2024-01-06T23:49:22.513Z,67.09
2024-01-06T23:51:49.281Z,67.97
2024-01-06T23:54:15.928Z,68.86
2024-01-06T23:56:42.493Z,69.84
2024-01-06T23:59:09.146Z,71.52
